sensor_id;sensor_type;location;lat;lon;timestamp;pressure;altitude;pressure_sealevel;temperature;humidity
75855;BME280;64502;59.976;30.316;2022-12-07T00:01:06;101135.19;;;-4.28;76.58
75855;BME280;64502;59.976;30.316;2022-12-07T00:03:32;101135.22;;;-4.25;76.53
75855;BME280;64502;59.976;30.316;2022-12-07T00:05:58;101125.75;;;-4.24;76.61
75855;BME280;64502;59.976;30.316;2022-12-07T00:08:24;101122.34;;;-4.21;76.51
75855;BME280;64502;59.976;30.316;2022-12-07T00:10:49;101122.31;;;-4.23;76.87
75855;BME280;64502;59.976;30.316;2022-12-07T00:13:14;101131.75;;;-4.27;76.60
75855;BME280;64502;59.976;30.316;2022-12-07T00:15:40;101125.75;;;-4.26;76.88
75855;BME280;64502;59.976;30.316;2022-12-07T00:18:06;101118.88;;;-4.25;76.68
75855;BME280;64502;59.976;30.316;2022-12-07T00:20:34;101134.34;;;-4.25;76.44
75855;BME280;64502;59.976;30.316;2022-12-07T00:23:00;101112.03;;;-4.23;76.99
75855;BME280;64502;59.976;30.316;2022-12-07T00:25:25;101121.50;;;-4.22;77.05
75855;BME280;64502;59.976;30.316;2022-12-07T00:27:54;101118.91;;;-4.20;76.53
75855;BME280;64502;59.976;30.316;2022-12-07T00:30:23;101112.91;;;-4.18;76.79
75855;BME280;64502;59.976;30.316;2022-12-07T00:32:49;101111.22;;;-4.16;76.93
75855;BME280;64502;59.976;30.316;2022-12-07T00:35:14;101113.00;;;-4.12;76.02
75855;BME280;64502;59.976;30.316;2022-12-07T00:37:40;101121.59;;;-4.10;76.23
75855;BME280;64502;59.976;30.316;2022-12-07T00:40:06;101124.19;;;-4.08;76.49
75855;BME280;64502;59.976;30.316;2022-12-07T00:42:31;101109.59;;;-4.06;76.52
75855;BME280;64502;59.976;30.316;2022-12-07T00:44:57;101111.31;;;-4.05;76.43
75855;BME280;64502;59.976;30.316;2022-12-07T00:47:23;101119.88;;;-4.08;76.47
75855;BME280;64502;59.976;30.316;2022-12-07T00:49:48;101120.75;;;-4.04;77.07
75855;BME280;64502;59.976;30.316;2022-12-07T00:52:13;101130.22;;;-4.05;77.17
75855;BME280;64502;59.976;30.316;2022-12-07T00:54:39;101130.22;;;-4.02;77.02
75855;BME280;64502;59.976;30.316;2022-12-07T00:57:05;101120.81;;;-3.99;77.02
75855;BME280;64502;59.976;30.316;2022-12-07T00:59:30;101129.41;;;-4.00;77.06
75855;BME280;64502;59.976;30.316;2022-12-07T01:01:56;101135.41;;;-4.00;76.76
75855;BME280;64502;59.976;30.316;2022-12-07T01:04:21;101133.66;;;-4.04;77.13
75855;BME280;64502;59.976;30.316;2022-12-07T01:06:47;101129.38;;;-4.04;77.02
75855;BME280;64502;59.976;30.316;2022-12-07T01:09:12;101131.13;;;-4.01;77.46
75855;BME280;64502;59.976;30.316;2022-12-07T01:11:37;101129.41;;;-3.96;77.15
75855;BME280;64502;59.976;30.316;2022-12-07T01:14:03;101124.31;;;-3.93;77.13
75855;BME280;64502;59.976;30.316;2022-12-07T01:16:30;101119.16;;;-3.91;77.28
75855;BME280;64502;59.976;30.316;2022-12-07T01:18:57;101122.59;;;-3.91;76.74
75855;BME280;64502;59.976;30.316;2022-12-07T01:21:29;101120.91;;;-3.89;77.15
75855;BME280;64502;59.976;30.316;2022-12-07T01:23:56;101120.84;;;-3.93;76.28
75855;BME280;64502;59.976;30.316;2022-12-07T01:26:23;101116.59;;;-3.93;76.20
75855;BME280;64502;59.976;30.316;2022-12-07T01:28:50;101114.88;;;-3.92;76.44
75855;BME280;64502;59.976;30.316;2022-12-07T01:31:18;101119.16;;;-3.93;76.24
75855;BME280;64502;59.976;30.316;2022-12-07T01:33:49;101120.00;;;-3.91;76.51
75855;BME280;64502;59.976;30.316;2022-12-07T01:36:20;101112.31;;;-3.88;76.28
75855;BME280;64502;59.976;30.316;2022-12-07T01:38:48;101105.44;;;-3.87;76.14
75855;BME280;64502;59.976;30.316;2022-12-07T01:41:17;101108.94;;;-3.81;76.23
75855;BME280;64502;59.976;30.316;2022-12-07T01:44:18;101114.13;;;-3.76;76.16
75855;BME280;64502;59.976;30.316;2022-12-07T01:46:55;101122.72;;;-3.74;75.78
75855;BME280;64502;59.976;30.316;2022-12-07T01:49:35;101116.72;;;-3.71;75.74
75855;BME280;64502;59.976;30.316;2022-12-07T01:54:43;101112.44;;;-3.69;74.87
75855;BME280;64502;59.976;30.316;2022-12-07T01:57:10;101107.28;;;-3.69;75.11
75855;BME280;64502;59.976;30.316;2022-12-07T01:59:37;101098.69;;;-3.67;75.20
75855;BME280;64502;59.976;30.316;2022-12-07T02:02:07;101110.72;;;-3.66;75.20
75855;BME280;64502;59.976;30.316;2022-12-07T02:04:35;101108.16;;;-3.67;75.38
75855;BME280;64502;59.976;30.316;2022-12-07T02:07:03;101114.19;;;-3.68;75.36
75855;BME280;64502;59.976;30.316;2022-12-07T02:09:29;101120.22;;;-3.65;75.76
75855;BME280;64502;59.976;30.316;2022-12-07T02:11:55;101112.47;;;-3.63;75.92
75855;BME280;64502;59.976;30.316;2022-12-07T02:14:21;101116.78;;;-3.62;76.09
75855;BME280;64502;59.976;30.316;2022-12-07T02:17:12;101119.41;;;-3.56;76.93
75855;BME280;64502;59.976;30.316;2022-12-07T02:25:20;101107.41;;;-3.48;76.47
75855;BME280;64502;59.976;30.316;2022-12-07T02:27:56;101107.44;;;-3.46;76.01
75855;BME280;64502;59.976;30.316;2022-12-07T02:30:31;101106.56;;;-3.48;76.27
75855;BME280;64502;59.976;30.316;2022-12-07T02:33:27;101095.38;;;-3.47;76.74
75855;BME280;64502;59.976;30.316;2022-12-07T02:36:04;101099.66;;;-3.48;77.03
75855;BME280;64502;59.976;30.316;2022-12-07T02:39:14;101094.53;;;-3.46;77.13
75855;BME280;64502;59.976;30.316;2022-12-07T02:42:27;101097.97;;;-3.43;76.78
75855;BME280;64502;59.976;30.316;2022-12-07T02:54:34;101086.81;;;-3.40;76.80
75855;BME280;64502;59.976;30.316;2022-12-07T02:57:47;101085.06;;;-3.41;76.44
75855;BME280;64502;59.976;30.316;2022-12-07T03:00:23;101079.91;;;-3.46;76.15
75855;BME280;64502;59.976;30.316;2022-12-07T03:03:10;101087.63;;;-3.49;76.59
75855;BME280;64502;59.976;30.316;2022-12-07T03:06:48;101078.19;;;-3.45;76.42
75855;BME280;64502;59.976;30.316;2022-12-07T03:12:12;101073.88;;;-3.45;76.42
75855;BME280;64502;59.976;30.316;2022-12-07T03:14:50;101079.91;;;-3.43;75.80
75855;BME280;64502;59.976;30.316;2022-12-07T03:17:28;101078.22;;;-3.41;76.24
75855;BME280;64502;59.976;30.316;2022-12-07T03:20:05;101075.63;;;-3.39;76.76
75855;BME280;64502;59.976;30.316;2022-12-07T03:22:47;101082.50;;;-3.40;77.16
75855;BME280;64502;59.976;30.316;2022-12-07T03:25:16;101085.09;;;-3.40;77.42
75855;BME280;64502;59.976;30.316;2022-12-07T03:27:57;101073.91;;;-3.40;77.68
75855;BME280;64502;59.976;30.316;2022-12-07T03:30:52;101084.22;;;-3.39;77.55
75855;BME280;64502;59.976;30.316;2022-12-07T03:39:29;101068.75;;;-3.42;77.99
75855;BME280;64502;59.976;30.316;2022-12-07T03:41:59;101077.34;;;-3.40;78.15
75855;BME280;64502;59.976;30.316;2022-12-07T03:44:26;101074.78;;;-3.37;77.84
75855;BME280;64502;59.976;30.316;2022-12-07T03:49:46;101070.50;;;-3.31;77.58
75855;BME280;64502;59.976;30.316;2022-12-07T03:55:06;101059.31;;;-3.30;77.93
75855;BME280;64502;59.976;30.316;2022-12-07T03:57:34;101053.28;;;-3.34;78.18
75855;BME280;64502;59.976;30.316;2022-12-07T04:00:05;101057.59;;;-3.38;77.93
75855;BME280;64502;59.976;30.316;2022-12-07T04:02:31;101057.56;;;-3.42;78.59
75855;BME280;64502;59.976;30.316;2022-12-07T04:04:58;101051.56;;;-3.43;78.24
75855;BME280;64502;59.976;30.316;2022-12-07T04:07:24;101061.84;;;-3.46;78.64
75855;BME280;64502;59.976;30.316;2022-12-07T04:09:49;101056.69;;;-3.49;78.60
75855;BME280;64502;59.976;30.316;2022-12-07T04:12:15;101054.09;;;-3.52;78.31
75855;BME280;64502;59.976;30.316;2022-12-07T04:14:40;101054.94;;;-3.51;78.83
75855;BME280;64502;59.976;30.316;2022-12-07T04:17:06;101052.38;;;-3.50;78.58
75855;BME280;64502;59.976;30.316;2022-12-07T04:19:33;101053.25;;;-3.46;78.68
75855;BME280;64502;59.976;30.316;2022-12-07T04:22:00;101059.28;;;-3.43;78.92
75855;BME280;64502;59.976;30.316;2022-12-07T04:24:26;101056.69;;;-3.41;78.51
75855;BME280;64502;59.976;30.316;2022-12-07T04:26:52;101052.44;;;-3.41;78.75
75855;BME280;64502;59.976;30.316;2022-12-07T04:29:18;101042.94;;;-3.42;78.29
75855;BME280;64502;59.976;30.316;2022-12-07T04:31:43;101038.63;;;-3.41;78.34
75855;BME280;64502;59.976;30.316;2022-12-07T04:34:10;101035.19;;;-3.42;78.21
75855;BME280;64502;59.976;30.316;2022-12-07T04:36:36;101030.06;;;-3.43;78.42
75855;BME280;64502;59.976;30.316;2022-12-07T04:39:02;101038.63;;;-3.41;78.55
75855;BME280;64502;59.976;30.316;2022-12-07T04:41:28;101035.22;;;-3.43;78.36
75855;BME280;64502;59.976;30.316;2022-12-07T04:44:02;101033.50;;;-3.43;78.29
75855;BME280;64502;59.976;30.316;2022-12-07T04:46:29;101031.75;;;-3.42;78.77
75855;BME280;64502;59.976;30.316;2022-12-07T04:48:55;101034.34;;;-3.42;77.85
75855;BME280;64502;59.976;30.316;2022-12-07T04:51:23;101050.69;;;-3.43;77.84
75855;BME280;64502;59.976;30.316;2022-12-07T04:53:49;101042.06;;;-3.45;77.92
75855;BME280;64502;59.976;30.316;2022-12-07T04:56:15;101033.50;;;-3.43;77.85
75855;BME280;64502;59.976;30.316;2022-12-07T04:58:42;101040.34;;;-3.45;77.72
75855;BME280;64502;59.976;30.316;2022-12-07T05:01:08;101048.94;;;-3.47;77.75
75855;BME280;64502;59.976;30.316;2022-12-07T05:03:35;101044.66;;;-3.45;78.53
75855;BME280;64502;59.976;30.316;2022-12-07T05:06:01;101043.81;;;-3.43;78.40
75855;BME280;64502;59.976;30.316;2022-12-07T05:08:26;101050.66;;;-3.45;78.39
75855;BME280;64502;59.976;30.316;2022-12-07T05:10:51;101058.41;;;-3.45;77.68
75855;BME280;64502;59.976;30.316;2022-12-07T05:13:17;101055.84;;;-3.45;78.31
75855;BME280;64502;59.976;30.316;2022-12-07T05:15:42;101048.97;;;-3.43;78.42
75855;BME280;64502;59.976;30.316;2022-12-07T05:18:09;101052.44;;;-3.41;78.30
75855;BME280;64502;59.976;30.316;2022-12-07T05:20:38;101048.09;;;-3.39;78.24
75855;BME280;64502;59.976;30.316;2022-12-07T05:23:06;101042.09;;;-3.36;78.26
75855;BME280;64502;59.976;30.316;2022-12-07T05:25:35;101048.16;;;-3.36;77.48
75855;BME280;64502;59.976;30.316;2022-12-07T05:28:01;101043.81;;;-3.40;77.66
75855;BME280;64502;59.976;30.316;2022-12-07T05:30:28;101048.09;;;-3.39;78.28
75855;BME280;64502;59.976;30.316;2022-12-07T05:32:54;101049.84;;;-3.38;78.85
75855;BME280;64502;59.976;30.316;2022-12-07T05:35:20;101049.84;;;-3.39;77.66
75855;BME280;64502;59.976;30.316;2022-12-07T05:37:46;101050.69;;;-3.42;78.12
75855;BME280;64502;59.976;30.316;2022-12-07T05:40:12;101047.25;;;-3.41;78.63
75855;BME280;64502;59.976;30.316;2022-12-07T05:42:38;101046.38;;;-3.43;78.46
75855;BME280;64502;59.976;30.316;2022-12-07T05:45:04;101054.09;;;-3.44;78.66
75855;BME280;64502;59.976;30.316;2022-12-07T05:47:30;101050.66;;;-3.45;79.28
75855;BME280;64502;59.976;30.316;2022-12-07T05:49:56;101057.56;;;-3.45;78.49
75855;BME280;64502;59.976;30.316;2022-12-07T05:52:21;101048.06;;;-3.52;78.85
75855;BME280;64502;59.976;30.316;2022-12-07T05:54:47;101049.78;;;-3.53;79.82
75855;BME280;64502;59.976;30.316;2022-12-07T05:57:12;101051.50;;;-3.50;79.96
75855;BME280;64502;59.976;30.316;2022-12-07T05:59:38;101048.06;;;-3.49;79.91
75855;BME280;64502;59.976;30.316;2022-12-07T06:02:06;101059.25;;;-3.47;79.16
75855;BME280;64502;59.976;30.316;2022-12-07T06:04:37;101060.13;;;-3.47;79.27
75855;BME280;64502;59.976;30.316;2022-12-07T06:07:04;101042.91;;;-3.51;79.40
75855;BME280;64502;59.976;30.316;2022-12-07T06:09:31;101043.78;;;-3.52;79.70
75855;BME280;64502;59.976;30.316;2022-12-07T06:11:57;101050.63;;;-3.49;79.77
75855;BME280;64502;59.976;30.316;2022-12-07T06:14:41;101038.63;;;-3.47;79.34
75855;BME280;64502;59.976;30.316;2022-12-07T06:17:07;101040.38;;;-3.46;79.38
75855;BME280;64502;59.976;30.316;2022-12-07T06:19:33;101038.66;;;-3.43;78.84
75855;BME280;64502;59.976;30.316;2022-12-07T06:21:58;101040.38;;;-3.43;78.26
75855;BME280;64502;59.976;30.316;2022-12-07T06:27:10;101040.38;;;-3.40;77.97
75855;BME280;64502;59.976;30.316;2022-12-07T06:29:41;101038.66;;;-3.40;78.55
75855;BME280;64502;59.976;30.316;2022-12-07T06:32:09;101045.56;;;-3.37;78.02
75855;BME280;64502;59.976;30.316;2022-12-07T06:34:35;101038.69;;;-3.38;77.42
75855;BME280;64502;59.976;30.316;2022-12-07T06:37:00;101041.25;;;-3.37;77.13
75855;BME280;64502;59.976;30.316;2022-12-07T06:39:27;101035.25;;;-3.36;77.12
75855;BME280;64502;59.976;30.316;2022-12-07T06:41:53;101031.78;;;-3.33;77.18
75855;BME280;64502;59.976;30.316;2022-12-07T06:44:21;101032.69;;;-3.29;77.28
75855;BME280;64502;59.976;30.316;2022-12-07T06:46:48;101038.72;;;-3.27;77.07
75855;BME280;64502;59.976;30.316;2022-12-07T06:49:18;101036.13;;;-3.29;76.25
75855;BME280;64502;59.976;30.316;2022-12-07T06:51:44;101039.56;;;-3.27;76.55
75855;BME280;64502;59.976;30.316;2022-12-07T06:54:11;101032.66;;;-3.31;76.46
75855;BME280;64502;59.976;30.316;2022-12-07T06:56:37;101040.41;;;-3.32;76.99
75855;BME280;64502;59.976;30.316;2022-12-07T06:59:03;101041.25;;;-3.35;75.91
75855;BME280;64502;59.976;30.316;2022-12-07T07:01:30;101035.25;;;-3.34;76.50
75855;BME280;64502;59.976;30.316;2022-12-07T07:03:56;101042.09;;;-3.36;75.82
75855;BME280;64502;59.976;30.316;2022-12-07T07:06:21;101040.38;;;-3.42;76.24
75855;BME280;64502;59.976;30.316;2022-12-07T07:09:09;101036.94;;;-3.39;77.02
75855;BME280;64502;59.976;30.316;2022-12-07T07:11:53;101046.41;;;-3.37;76.61
75855;BME280;64502;59.976;30.316;2022-12-07T07:14:24;101058.47;;;-3.36;76.24
75855;BME280;64502;59.976;30.316;2022-12-07T07:17:04;101053.31;;;-3.36;75.68
75855;BME280;64502;59.976;30.316;2022-12-07T07:19:50;101050.72;;;-3.34;75.78
75855;BME280;64502;59.976;30.316;2022-12-07T07:22:16;101048.16;;;-3.28;75.50
75855;BME280;64502;59.976;30.316;2022-12-07T07:24:42;101053.31;;;-3.28;75.23
75855;BME280;64502;59.976;30.316;2022-12-07T07:27:07;101051.63;;;-3.24;75.55
75855;BME280;64502;59.976;30.316;2022-12-07T07:29:32;101048.16;;;-3.25;76.12
75855;BME280;64502;59.976;30.316;2022-12-07T07:31:59;101051.63;;;-3.20;75.66
75855;BME280;64502;59.976;30.316;2022-12-07T07:34:25;101049.06;;;-3.12;75.49
75855;BME280;64502;59.976;30.316;2022-12-07T07:36:50;101044.78;;;-3.10;74.30
75855;BME280;64502;59.976;30.316;2022-12-07T07:39:15;101045.66;;;-3.03;74.90
75855;BME280;64502;59.976;30.316;2022-12-07T07:41:41;101042.22;;;-2.98;74.92
75855;BME280;64502;59.976;30.316;2022-12-07T07:44:06;101043.94;;;-2.95;74.44
75855;BME280;64502;59.976;30.316;2022-12-07T07:46:33;101037.09;;;-2.93;74.53
75855;BME280;64502;59.976;30.316;2022-12-07T07:48:59;101037.06;;;-2.96;73.92
75855;BME280;64502;59.976;30.316;2022-12-07T07:51:24;101032.78;;;-2.99;73.94
75855;BME280;64502;59.976;30.316;2022-12-07T07:53:50;101039.66;;;-2.99;74.81
75855;BME280;64502;59.976;30.316;2022-12-07T07:56:15;101038.78;;;-3.01;74.70
75855;BME280;64502;59.976;30.316;2022-12-07T07:58:41;101046.53;;;-3.04;75.25
75855;BME280;64502;59.976;30.316;2022-12-07T08:01:06;101056.00;;;-3.02;74.18
75855;BME280;64502;59.976;30.316;2022-12-07T08:03:32;101037.91;;;-3.06;74.22
75855;BME280;64502;59.976;30.316;2022-12-07T08:05:57;101037.06;;;-3.07;73.85
75855;BME280;64502;59.976;30.316;2022-12-07T08:08:23;101035.34;;;-3.05;74.16
75855;BME280;64502;59.976;30.316;2022-12-07T08:10:48;101027.59;;;-3.00;74.40
75855;BME280;64502;59.976;30.316;2022-12-07T08:13:17;101037.06;;;-2.99;73.67
75855;BME280;64502;59.976;30.316;2022-12-07T08:15:45;101037.06;;;-3.01;73.98
75855;BME280;64502;59.976;30.316;2022-12-07T08:18:12;101033.63;;;-2.95;74.54
75855;BME280;64502;59.976;30.316;2022-12-07T08:20:38;101030.22;;;-2.94;74.06
75855;BME280;64502;59.976;30.316;2022-12-07T08:23:06;101027.63;;;-2.90;74.61
75855;BME280;64502;59.976;30.316;2022-12-07T08:25:32;101034.50;;;-2.96;74.56
75855;BME280;64502;59.976;30.316;2022-12-07T08:27:58;101023.31;;;-2.98;75.38
75855;BME280;64502;59.976;30.316;2022-12-07T08:30:24;101021.56;;;-2.98;75.96
75855;BME280;64502;59.976;30.316;2022-12-07T08:32:49;101024.16;;;-2.98;76.10
75855;BME280;64502;59.976;30.316;2022-12-07T08:35:16;101026.75;;;-2.99;76.30
75855;BME280;64502;59.976;30.316;2022-12-07T08:37:42;101026.75;;;-3.02;76.15
75855;BME280;64502;59.976;30.316;2022-12-07T08:40:09;101022.44;;;-3.05;77.08
75855;BME280;64502;59.976;30.316;2022-12-07T08:42:35;101021.59;;;-3.05;77.87
75855;BME280;64502;59.976;30.316;2022-12-07T08:45:10;101016.41;;;-3.02;78.60
75855;BME280;64502;59.976;30.316;2022-12-07T08:47:39;101014.69;;;-3.02;77.61
75855;BME280;64502;59.976;30.316;2022-12-07T08:50:07;101012.13;;;-2.97;77.89
75855;BME280;64502;59.976;30.316;2022-12-07T08:52:34;101013.84;;;-2.93;77.43
75855;BME280;64502;59.976;30.316;2022-12-07T08:55:02;101008.69;;;-2.88;77.71
75855;BME280;64502;59.976;30.316;2022-12-07T08:57:29;101004.38;;;-2.90;76.87
75855;BME280;64502;59.976;30.316;2022-12-07T08:59:54;101013.00;;;-2.89;77.57
75855;BME280;64502;59.976;30.316;2022-12-07T09:02:20;101010.44;;;-2.89;77.37
75855;BME280;64502;59.976;30.316;2022-12-07T09:04:46;100999.22;;;-2.88;77.58
75855;BME280;64502;59.976;30.316;2022-12-07T09:07:11;101006.97;;;-2.88;77.33
75855;BME280;64502;59.976;30.316;2022-12-07T09:09:37;101002.66;;;-2.92;77.49
75855;BME280;64502;59.976;30.316;2022-12-07T09:12:03;100997.50;;;-2.92;77.36
75855;BME280;64502;59.976;30.316;2022-12-07T09:14:28;100994.06;;;-2.88;78.51
75855;BME280;64502;59.976;30.316;2022-12-07T09:16:54;100994.09;;;-2.83;77.87
75855;BME280;64502;59.976;30.316;2022-12-07T09:19:19;101002.66;;;-2.81;76.82
75855;BME280;64502;59.976;30.316;2022-12-07T09:21:45;100988.06;;;-2.78;76.73
75855;BME280;64502;59.976;30.316;2022-12-07T09:24:12;100982.91;;;-2.81;76.57
75855;BME280;64502;59.976;30.316;2022-12-07T09:26:37;100995.78;;;-2.85;76.76
75855;BME280;64502;59.976;30.316;2022-12-07T09:29:04;100992.34;;;-2.89;76.91
75855;BME280;64502;59.976;30.316;2022-12-07T09:31:30;100990.63;;;-2.93;77.45
75855;BME280;64502;59.976;30.316;2022-12-07T09:33:59;100984.56;;;-2.92;77.42
75855;BME280;64502;59.976;30.316;2022-12-07T09:36:25;101000.06;;;-2.92;77.11
75855;BME280;64502;59.976;30.316;2022-12-07T09:38:52;100988.00;;;-2.98;76.88
75855;BME280;64502;59.976;30.316;2022-12-07T09:41:17;100991.44;;;-3.00;77.15
75855;BME280;64502;59.976;30.316;2022-12-07T09:43:44;100993.19;;;-2.99;77.16
75855;BME280;64502;59.976;30.316;2022-12-07T09:46:16;100994.91;;;-2.97;76.58
75855;BME280;64502;59.976;30.316;2022-12-07T09:48:43;100989.75;;;-2.95;77.00
75855;BME280;64502;59.976;30.316;2022-12-07T09:51:21;100981.16;;;-2.91;76.15
75855;BME280;64502;59.976;30.316;2022-12-07T09:53:48;100973.41;;;-2.91;76.23
75855;BME280;64502;59.976;30.316;2022-12-07T09:56:15;100979.44;;;-2.87;76.23
75855;BME280;64502;59.976;30.316;2022-12-07T09:58:42;100977.69;;;-2.84;75.63
75855;BME280;64502;59.976;30.316;2022-12-07T10:03:47;100966.50;;;-2.81;75.26
75855;BME280;64502;59.976;30.316;2022-12-07T10:06:15;100975.16;;;-2.81;75.24
75855;BME280;64502;59.976;30.316;2022-12-07T10:08:40;100966.50;;;-2.81;74.97
75855;BME280;64502;59.976;30.316;2022-12-07T10:11:09;100959.66;;;-2.88;74.63
75855;BME280;64502;59.976;30.316;2022-12-07T10:13:44;100957.06;;;-2.95;74.77
75855;BME280;64502;59.976;30.316;2022-12-07T10:16:39;100965.63;;;-3.03;75.69
75855;BME280;64502;59.976;30.316;2022-12-07T10:22:01;100957.91;;;-3.05;76.11
75855;BME280;64502;59.976;30.316;2022-12-07T10:24:27;100958.78;;;-3.03;76.13
75855;BME280;64502;59.976;30.316;2022-12-07T10:26:53;100959.63;;;-2.99;75.73
75855;BME280;64502;59.976;30.316;2022-12-07T10:31:51;100953.59;;;-3.07;75.54
75855;BME280;64502;59.976;30.316;2022-12-07T10:34:32;100951.03;;;-3.04;76.86
75855;BME280;64502;59.976;30.316;2022-12-07T10:39:53;100942.41;;;-2.99;77.03
75855;BME280;64502;59.976;30.316;2022-12-07T10:42:21;100943.28;;;-2.91;77.52
75855;BME280;64502;59.976;30.316;2022-12-07T10:44:48;100947.59;;;-2.85;76.23
75855;BME280;64502;59.976;30.316;2022-12-07T10:50:27;100942.41;;;-2.93;74.92
75855;BME280;64502;59.976;30.316;2022-12-07T11:01:45;100942.41;;;-3.08;75.28
75855;BME280;64502;59.976;30.316;2022-12-07T11:07:15;100923.47;;;-3.15;74.86
75855;BME280;64502;59.976;30.316;2022-12-07T11:12:47;100921.75;;;-3.06;74.08
75855;BME280;64502;59.976;30.316;2022-12-07T11:15:26;100915.72;;;-3.12;73.62
75855;BME280;64502;59.976;30.316;2022-12-07T11:18:11;100917.44;;;-3.12;74.16
75855;BME280;64502;59.976;30.316;2022-12-07T11:20:53;100926.03;;;-3.08;73.77
75855;BME280;64502;59.976;30.316;2022-12-07T11:34:47;100908.81;;;-3.42;73.34
75855;BME280;64502;59.976;30.316;2022-12-07T11:37:20;100901.94;;;-3.46;74.19
75855;BME280;64502;59.976;30.316;2022-12-07T11:39:57;100904.50;;;-3.47;73.80
75855;BME280;64502;59.976;30.316;2022-12-07T11:42:28;100902.75;;;-3.50;74.20
75855;BME280;64502;59.976;30.316;2022-12-07T11:45:03;100910.50;;;-3.51;73.31
75855;BME280;64502;59.976;30.316;2022-12-07T11:47:45;100904.47;;;-3.53;73.26
75855;BME280;64502;59.976;30.316;2022-12-07T11:50:26;100899.31;;;-3.53;72.74
75855;BME280;64502;59.976;30.316;2022-12-07T11:56:15;100897.59;;;-3.62;72.79
75855;BME280;64502;59.976;30.316;2022-12-07T11:58:55;100899.28;;;-3.66;73.14
75855;BME280;64502;59.976;30.316;2022-12-07T12:04:38;100894.13;;;-3.69;73.55
75855;BME280;64502;59.976;30.316;2022-12-07T12:07:07;100884.63;;;-3.77;73.16
75855;BME280;64502;59.976;30.316;2022-12-07T12:09:47;100889.78;;;-3.82;74.31
75855;BME280;64502;59.976;30.316;2022-12-07T12:20:39;100891.44;;;-4.03;74.42
75855;BME280;64502;59.976;30.316;2022-12-07T12:25:41;100893.13;;;-4.05;74.96
75855;BME280;64502;59.976;30.316;2022-12-07T12:28:24;100888.84;;;-4.09;75.15
75855;BME280;64502;59.976;30.316;2022-12-07T12:34:02;100893.09;;;-4.11;75.44
75855;BME280;64502;59.976;30.316;2022-12-07T12:44:02;100878.50;;;-4.16;76.06
75855;BME280;64502;59.976;30.316;2022-12-07T12:51:47;100864.75;;;-4.14;75.67
75855;BME280;64502;59.976;30.316;2022-12-07T12:59:35;100877.63;;;-4.15;76.21
75855;BME280;64502;59.976;30.316;2022-12-07T13:04:53;100863.88;;;-4.19;75.53
75855;BME280;64502;59.976;30.316;2022-12-07T13:18:38;100863.88;;;-4.22;76.21
75855;BME280;64502;59.976;30.316;2022-12-07T13:21:40;100869.00;;;-4.22;74.79
75855;BME280;64502;59.976;30.316;2022-12-07T13:24:12;100862.97;;;-4.27;75.13
75855;BME280;64502;59.976;30.316;2022-12-07T13:26:42;100858.69;;;-4.28;75.56
75855;BME280;64502;59.976;30.316;2022-12-07T13:29:18;100856.94;;;-4.29;75.44
75855;BME280;64502;59.976;30.316;2022-12-07T13:31:50;100857.81;;;-4.27;75.87
75855;BME280;64502;59.976;30.316;2022-12-07T13:34:36;100854.41;;;-4.25;75.71
75855;BME280;64502;59.976;30.316;2022-12-07T13:40:16;100853.50;;;-4.30;75.54
75855;BME280;64502;59.976;30.316;2022-12-07T13:42:46;100846.66;;;-4.34;76.14
75855;BME280;64502;59.976;30.316;2022-12-07T13:45:24;100850.06;;;-4.32;75.84
75855;BME280;64502;59.976;30.316;2022-12-07T13:50:55;100850.06;;;-4.29;76.38
75855;BME280;64502;59.976;30.316;2022-12-07T13:53:22;100848.38;;;-4.28;76.08
75855;BME280;64502;59.976;30.316;2022-12-07T13:58:44;100856.94;;;-4.32;75.82
75855;BME280;64502;59.976;30.316;2022-12-07T14:01:10;100849.19;;;-4.38;75.74
75855;BME280;64502;59.976;30.316;2022-12-07T14:03:36;100844.88;;;-4.41;76.14
75855;BME280;64502;59.976;30.316;2022-12-07T14:08:42;100852.59;;;-4.42;76.03
75855;BME280;64502;59.976;30.316;2022-12-07T14:11:14;100837.13;;;-4.42;75.82
75855;BME280;64502;59.976;30.316;2022-12-07T14:17:15;100831.13;;;-4.46;75.66
75855;BME280;64502;59.976;30.316;2022-12-07T14:19:56;100827.69;;;-4.47;75.87
75855;BME280;64502;59.976;30.316;2022-12-07T14:22:34;100843.16;;;-4.42;76.26
75855;BME280;64502;59.976;30.316;2022-12-07T14:25:20;100808.84;;;-4.38;75.66
75855;BME280;64502;59.976;30.316;2022-12-07T14:27:59;100820.84;;;-4.38;75.69
75855;BME280;64502;59.976;30.316;2022-12-07T14:30:30;100825.16;;;-4.39;75.59
75855;BME280;64502;59.976;30.316;2022-12-07T14:33:04;100818.28;;;-4.37;75.86
75855;BME280;64502;59.976;30.316;2022-12-07T14:35:31;100824.28;;;-4.41;74.71
75855;BME280;64502;59.976;30.316;2022-12-07T14:37:57;100811.41;;;-4.38;75.18
75855;BME280;64502;59.976;30.316;2022-12-07T14:40:25;100816.56;;;-4.35;74.88
75855;BME280;64502;59.976;30.316;2022-12-07T14:43:05;100814.84;;;-4.34;74.83
75855;BME280;64502;59.976;30.316;2022-12-07T14:45:34;100800.28;;;-4.32;75.18
75855;BME280;64502;59.976;30.316;2022-12-07T14:47:59;100807.16;;;-4.30;75.03
75855;BME280;64502;59.976;30.316;2022-12-07T14:50:25;100796.88;;;-4.28;74.82
75855;BME280;64502;59.976;30.316;2022-12-07T14:53:02;100797.72;;;-4.26;75.04
75855;BME280;64502;59.976;30.316;2022-12-07T14:55:30;100804.56;;;-4.30;74.79
75855;BME280;64502;59.976;30.316;2022-12-07T14:57:57;100790.00;;;-4.31;74.15
75855;BME280;64502;59.976;30.316;2022-12-07T15:00:24;100794.25;;;-4.34;74.30
75855;BME280;64502;59.976;30.316;2022-12-07T15:02:51;100797.66;;;-4.37;75.15
75855;BME280;64502;59.976;30.316;2022-12-07T15:05:17;100799.38;;;-4.37;75.08
75855;BME280;64502;59.976;30.316;2022-12-07T15:07:44;100791.69;;;-4.33;75.17
75855;BME280;64502;59.976;30.316;2022-12-07T15:10:24;100802.88;;;-4.28;75.14
75855;BME280;64502;59.976;30.316;2022-12-07T15:12:54;100785.66;;;-4.32;74.57
75855;BME280;64502;59.976;30.316;2022-12-07T15:15:19;100787.41;;;-4.29;75.08
75855;BME280;64502;59.976;30.316;2022-12-07T15:17:45;100783.13;;;-4.30;75.31